sensor_id;sensor_type;location;lat;lon;timestamp;temperature;humidity
69382;DHT22;56560;50.692;12.844;2023-07-29T00:00:42;18.70;82.20
69382;DHT22;56560;50.692;12.844;2023-07-29T00:03:09;18.80;81.80
69382;DHT22;56560;50.692;12.844;2023-07-29T00:05:34;18.90;81.30
69382;DHT22;56560;50.692;12.844;2023-07-29T00:08:00;18.90;81.30
69382;DHT22;56560;50.692;12.844;2023-07-29T00:10:26;18.90;81.30
69382;DHT22;56560;50.692;12.844;2023-07-29T00:12:52;18.90;81.40
69382;DHT22;56560;50.692;12.844;2023-07-29T00:15:18;18.80;81.30
69382;DHT22;56560;50.692;12.844;2023-07-29T00:17:43;18.80;81.40
69382;DHT22;56560;50.692;12.844;2023-07-29T00:20:09;18.80;81.30
69382;DHT22;56560;50.692;12.844;2023-07-29T00:22:35;18.80;81.30
69382;DHT22;56560;50.692;12.844;2023-07-29T00:25:01;18.80;81.40
69382;DHT22;56560;50.692;12.844;2023-07-29T00:27:26;18.80;81.60
69382;DHT22;56560;50.692;12.844;2023-07-29T00:29:52;18.70;82.10
69382;DHT22;56560;50.692;12.844;2023-07-29T00:32:18;18.60;82.20
69382;DHT22;56560;50.692;12.844;2023-07-29T00:34:43;18.50;82.20
69382;DHT22;56560;50.692;12.844;2023-07-29T00:37:09;18.40;83.00
69382;DHT22;56560;50.692;12.844;2023-07-29T00:39:36;18.30;83.30
69382;DHT22;56560;50.692;12.844;2023-07-29T00:42:03;18.20;83.80
69382;DHT22;56560;50.692;12.844;2023-07-29T00:44:28;18.20;83.70
69382;DHT22;56560;50.692;12.844;2023-07-29T00:46:54;18.10;83.90
69382;DHT22;56560;50.692;12.844;2023-07-29T00:49:21;18.00;84.20
69382;DHT22;56560;50.692;12.844;2023-07-29T00:51:47;18.00;84.50
69382;DHT22;56560;50.692;12.844;2023-07-29T00:54:13;17.90;84.60
69382;DHT22;56560;50.692;12.844;2023-07-29T00:56:39;17.90;84.80
69382;DHT22;56560;50.692;12.844;2023-07-29T00:59:05;17.90;84.70
69382;DHT22;56560;50.692;12.844;2023-07-29T01:01:31;17.90;84.60
69382;DHT22;56560;50.692;12.844;2023-07-29T01:03:57;17.90;84.80
69382;DHT22;56560;50.692;12.844;2023-07-29T01:12:47;17.60;85.50
69382;DHT22;56560;50.692;12.844;2023-07-29T01:15:25;17.50;85.90
69382;DHT22;56560;50.692;12.844;2023-07-29T01:17:59;17.40;86.30
69382;DHT22;56560;50.692;12.844;2023-07-29T01:20:32;17.40;86.40
69382;DHT22;56560;50.692;12.844;2023-07-29T01:22:58;17.30;86.40
69382;DHT22;56560;50.692;12.844;2023-07-29T01:25:24;17.30;86.50
69382;DHT22;56560;50.692;12.844;2023-07-29T01:27:50;17.30;86.30
69382;DHT22;56560;50.692;12.844;2023-07-29T01:30:20;17.20;86.40
69382;DHT22;56560;50.692;12.844;2023-07-29T01:33:14;17.20;86.30
69382;DHT22;56560;50.692;12.844;2023-07-29T01:35:51;17.10;86.60
69382;DHT22;56560;50.692;12.844;2023-07-29T01:38:24;17.10;87.30
69382;DHT22;56560;50.692;12.844;2023-07-29T01:40:53;17.00;87.70
69382;DHT22;56560;50.692;12.844;2023-07-29T01:43:20;16.90;87.90
69382;DHT22;56560;50.692;12.844;2023-07-29T01:45:49;16.90;87.80
69382;DHT22;56560;50.692;12.844;2023-07-29T01:48:15;17.00;87.80
69382;DHT22;56560;50.692;12.844;2023-07-29T01:50:40;17.20;87.30
69382;DHT22;56560;50.692;12.844;2023-07-29T01:53:06;17.30;86.90
69382;DHT22;56560;50.692;12.844;2023-07-29T01:55:31;17.50;86.40
69382;DHT22;56560;50.692;12.844;2023-07-29T01:57:57;17.60;86.10
69382;DHT22;56560;50.692;12.844;2023-07-29T02:00:23;17.70;85.50
69382;DHT22;56560;50.692;12.844;2023-07-29T02:02:49;17.80;85.10
69382;DHT22;56560;50.692;12.844;2023-07-29T02:05:15;17.80;84.80
69382;DHT22;56560;50.692;12.844;2023-07-29T02:07:40;17.90;84.80
69382;DHT22;56560;50.692;12.844;2023-07-29T02:10:06;17.90;84.60
69382;DHT22;56560;50.692;12.844;2023-07-29T02:12:33;18.00;84.40
69382;DHT22;56560;50.692;12.844;2023-07-29T02:14:58;18.00;84.30
69382;DHT22;56560;50.692;12.844;2023-07-29T02:17:24;18.10;84.00
69382;DHT22;56560;50.692;12.844;2023-07-29T02:19:51;18.20;83.70
69382;DHT22;56560;50.692;12.844;2023-07-29T02:22:17;18.20;83.80
69382;DHT22;56560;50.692;12.844;2023-07-29T02:24:44;18.20;83.70
69382;DHT22;56560;50.692;12.844;2023-07-29T02:27:09;18.20;83.50
69382;DHT22;56560;50.692;12.844;2023-07-29T02:29:35;18.30;83.30
69382;DHT22;56560;50.692;12.844;2023-07-29T02:32:00;18.30;83.30
69382;DHT22;56560;50.692;12.844;2023-07-29T02:34:26;18.40;83.00
69382;DHT22;56560;50.692;12.844;2023-07-29T02:36:52;18.40;83.00
69382;DHT22;56560;50.692;12.844;2023-07-29T02:39:17;18.40;83.00
69382;DHT22;56560;50.692;12.844;2023-07-29T02:41:43;18.50;83.00
69382;DHT22;56560;50.692;12.844;2023-07-29T02:44:08;18.50;82.80
69382;DHT22;56560;50.692;12.844;2023-07-29T02:46:34;18.50;82.50
69382;DHT22;56560;50.692;12.844;2023-07-29T02:49:02;18.60;82.30
69382;DHT22;56560;50.692;12.844;2023-07-29T02:51:28;18.50;82.30
69382;DHT22;56560;50.692;12.844;2023-07-29T02:53:53;18.50;82.40
69382;DHT22;56560;50.692;12.844;2023-07-29T02:56:19;18.50;82.50
69382;DHT22;56560;50.692;12.844;2023-07-29T02:58:45;18.50;82.50
69382;DHT22;56560;50.692;12.844;2023-07-29T03:01:10;18.50;82.30
69382;DHT22;56560;50.692;12.844;2023-07-29T03:03:36;18.50;82.30
69382;DHT22;56560;50.692;12.844;2023-07-29T03:06:10;18.60;82.20
69382;DHT22;56560;50.692;12.844;2023-07-29T03:08:36;18.50;82.20
69382;DHT22;56560;50.692;12.844;2023-07-29T03:11:12;18.60;82.10
69382;DHT22;56560;50.692;12.844;2023-07-29T03:13:38;18.60;81.80
69382;DHT22;56560;50.692;12.844;2023-07-29T03:16:08;18.60;81.80
69382;DHT22;56560;50.692;12.844;2023-07-29T03:18:34;18.60;81.70
69382;DHT22;56560;50.692;12.844;2023-07-29T03:21:00;18.60;81.80
69382;DHT22;56560;50.692;12.844;2023-07-29T03:23:27;18.60;81.90
69382;DHT22;56560;50.692;12.844;2023-07-29T03:25:55;18.60;81.90
69382;DHT22;56560;50.692;12.844;2023-07-29T03:28:23;18.60;81.90
69382;DHT22;56560;50.692;12.844;2023-07-29T03:30:49;18.60;81.90
69382;DHT22;56560;50.692;12.844;2023-07-29T03:33:15;18.60;82.00
69382;DHT22;56560;50.692;12.844;2023-07-29T03:35:40;18.60;81.70
69382;DHT22;56560;50.692;12.844;2023-07-29T03:38:10;18.60;81.90
69382;DHT22;56560;50.692;12.844;2023-07-29T03:40:36;18.60;81.80
69382;DHT22;56560;50.692;12.844;2023-07-29T03:43:01;18.70;81.70
69382;DHT22;56560;50.692;12.844;2023-07-29T03:45:27;18.70;81.60
69382;DHT22;56560;50.692;12.844;2023-07-29T03:47:52;18.70;81.70
69382;DHT22;56560;50.692;12.844;2023-07-29T03:50:18;18.70;81.50
69382;DHT22;56560;50.692;12.844;2023-07-29T03:52:44;18.70;81.40
69382;DHT22;56560;50.692;12.844;2023-07-29T03:55:10;18.70;81.50
69382;DHT22;56560;50.692;12.844;2023-07-29T03:57:35;18.70;81.50
69382;DHT22;56560;50.692;12.844;2023-07-29T04:00:01;18.70;81.40
69382;DHT22;56560;50.692;12.844;2023-07-29T04:02:27;18.70;81.40
69382;DHT22;56560;50.692;12.844;2023-07-29T04:04:52;18.70;81.40
69382;DHT22;56560;50.692;12.844;2023-07-29T04:07:18;18.70;81.30
69382;DHT22;56560;50.692;12.844;2023-07-29T04:09:43;18.70;81.00
69382;DHT22;56560;50.692;12.844;2023-07-29T04:12:09;18.80;81.00
69382;DHT22;56560;50.692;12.844;2023-07-29T04:14:35;18.80;80.60
69382;DHT22;56560;50.692;12.844;2023-07-29T04:17:01;18.90;80.60
69382;DHT22;56560;50.692;12.844;2023-07-29T04:19:26;18.90;80.50
69382;DHT22;56560;50.692;12.844;2023-07-29T04:21:52;18.90;80.50
69382;DHT22;56560;50.692;12.844;2023-07-29T04:24:17;18.90;80.40
69382;DHT22;56560;50.692;12.844;2023-07-29T04:26:45;18.90;80.40
69382;DHT22;56560;50.692;12.844;2023-07-29T04:29:11;19.00;80.00
69382;DHT22;56560;50.692;12.844;2023-07-29T04:31:37;19.10;79.90
69382;DHT22;56560;50.692;12.844;2023-07-29T04:34:04;19.20;79.60
69382;DHT22;56560;50.692;12.844;2023-07-29T04:36:30;19.30;79.30
69382;DHT22;56560;50.692;12.844;2023-07-29T04:38:56;19.40;78.40
69382;DHT22;56560;50.692;12.844;2023-07-29T04:41:21;19.50;78.20
69382;DHT22;56560;50.692;12.844;2023-07-29T04:43:47;19.50;78.00
69382;DHT22;56560;50.692;12.844;2023-07-29T04:46:15;19.50;77.70
69382;DHT22;56560;50.692;12.844;2023-07-29T04:48:40;19.60;77.80
69382;DHT22;56560;50.692;12.844;2023-07-29T04:51:06;19.60;77.60
69382;DHT22;56560;50.692;12.844;2023-07-29T04:53:32;19.60;77.30
69382;DHT22;56560;50.692;12.844;2023-07-29T04:55:58;19.60;77.10
69382;DHT22;56560;50.692;12.844;2023-07-29T04:58:23;19.70;76.90
69382;DHT22;56560;50.692;12.844;2023-07-29T05:00:49;19.80;77.00
69382;DHT22;56560;50.692;12.844;2023-07-29T05:03:15;19.90;76.40
69382;DHT22;56560;50.692;12.844;2023-07-29T05:05:40;20.00;76.20
69382;DHT22;56560;50.692;12.844;2023-07-29T05:08:06;20.10;74.90
69382;DHT22;56560;50.692;12.844;2023-07-29T05:10:32;20.10;75.50
69382;DHT22;56560;50.692;12.844;2023-07-29T05:12:57;20.20;75.30
69382;DHT22;56560;50.692;12.844;2023-07-29T05:15:23;20.30;75.00
69382;DHT22;56560;50.692;12.844;2023-07-29T05:17:48;20.40;74.30
69382;DHT22;56560;50.692;12.844;2023-07-29T05:20:14;20.50;74.20
69382;DHT22;56560;50.692;12.844;2023-07-29T05:22:40;20.50;73.20
69382;DHT22;56560;50.692;12.844;2023-07-29T05:25:06;20.50;73.70
69382;DHT22;56560;50.692;12.844;2023-07-29T05:27:31;20.60;74.00
69382;DHT22;56560;50.692;12.844;2023-07-29T05:29:57;20.70;72.70
69382;DHT22;56560;50.692;12.844;2023-07-29T05:32:23;20.90;72.00
69382;DHT22;56560;50.692;12.844;2023-07-29T05:34:48;21.30;70.40
69382;DHT22;56560;50.692;12.844;2023-07-29T05:37:14;21.40;69.50
69382;DHT22;56560;50.692;12.844;2023-07-29T05:39:39;21.40;69.70
69382;DHT22;56560;50.692;12.844;2023-07-29T05:42:05;21.20;70.10
69382;DHT22;56560;50.692;12.844;2023-07-29T05:44:31;21.10;70.70
69382;DHT22;56560;50.692;12.844;2023-07-29T05:46:57;21.00;70.70
69382;DHT22;56560;50.692;12.844;2023-07-29T05:49:23;21.00;71.20
69382;DHT22;56560;50.692;12.844;2023-07-29T05:51:49;21.00;70.80
69382;DHT22;56560;50.692;12.844;2023-07-29T05:54:17;21.00;70.40
69382;DHT22;56560;50.692;12.844;2023-07-29T05:56:43;21.00;70.50
69382;DHT22;56560;50.692;12.844;2023-07-29T05:59:08;20.90;70.30
69382;DHT22;56560;50.692;12.844;2023-07-29T06:01:34;20.90;70.50
69382;DHT22;56560;50.692;12.844;2023-07-29T06:04:00;21.00;70.60
69382;DHT22;56560;50.692;12.844;2023-07-29T06:06:26;21.10;69.60
69382;DHT22;56560;50.692;12.844;2023-07-29T06:08:52;21.20;69.10
69382;DHT22;56560;50.692;12.844;2023-07-29T06:11:17;21.30;69.60
69382;DHT22;56560;50.692;12.844;2023-07-29T06:13:43;21.60;68.90
69382;DHT22;56560;50.692;12.844;2023-07-29T06:16:09;21.80;67.70
69382;DHT22;56560;50.692;12.844;2023-07-29T06:18:34;22.00;67.20
69382;DHT22;56560;50.692;12.844;2023-07-29T06:21:00;22.00;66.80
69382;DHT22;56560;50.692;12.844;2023-07-29T06:23:26;22.10;66.50
69382;DHT22;56560;50.692;12.844;2023-07-29T06:25:51;22.40;64.40
69382;DHT22;56560;50.692;12.844;2023-07-29T06:28:17;22.30;64.80
69382;DHT22;56560;50.692;12.844;2023-07-29T06:30:42;22.20;64.20
69382;DHT22;56560;50.692;12.844;2023-07-29T06:33:08;22.20;64.40
69382;DHT22;56560;50.692;12.844;2023-07-29T06:35:34;22.10;64.90
69382;DHT22;56560;50.692;12.844;2023-07-29T06:38:00;22.00;65.60
69382;DHT22;56560;50.692;12.844;2023-07-29T06:40:26;22.10;64.30
69382;DHT22;56560;50.692;12.844;2023-07-29T06:42:51;22.00;64.70
69382;DHT22;56560;50.692;12.844;2023-07-29T06:45:17;22.40;64.10
69382;DHT22;56560;50.692;12.844;2023-07-29T06:47:42;22.80;63.40
69382;DHT22;56560;50.692;12.844;2023-07-29T06:50:08;23.10;61.90
69382;DHT22;56560;50.692;12.844;2023-07-29T06:52:34;23.10;62.40
69382;DHT22;56560;50.692;12.844;2023-07-29T06:55:00;22.80;62.60
69382;DHT22;56560;50.692;12.844;2023-07-29T06:57:26;22.60;63.20
69382;DHT22;56560;50.692;12.844;2023-07-29T06:59:52;22.30;64.10
69382;DHT22;56560;50.692;12.844;2023-07-29T07:02:18;22.30;64.50
69382;DHT22;56560;50.692;12.844;2023-07-29T07:04:44;22.20;64.10
69382;DHT22;56560;50.692;12.844;2023-07-29T07:07:09;22.30;64.40
69382;DHT22;56560;50.692;12.844;2023-07-29T07:09:35;22.50;64.00
69382;DHT22;56560;50.692;12.844;2023-07-29T07:12:00;22.60;63.40
69382;DHT22;56560;50.692;12.844;2023-07-29T07:14:26;22.70;63.60
69382;DHT22;56560;50.692;12.844;2023-07-29T07:16:51;22.60;64.30
69382;DHT22;56560;50.692;12.844;2023-07-29T07:19:17;22.50;63.70
69382;DHT22;56560;50.692;12.844;2023-07-29T07:21:43;22.40;64.00
69382;DHT22;56560;50.692;12.844;2023-07-29T07:24:08;22.40;63.70
69382;DHT22;56560;50.692;12.844;2023-07-29T07:26:34;22.60;63.00
69382;DHT22;56560;50.692;12.844;2023-07-29T07:28:59;22.80;62.70
69382;DHT22;56560;50.692;12.844;2023-07-29T07:31:25;23.00;62.20
69382;DHT22;56560;50.692;12.844;2023-07-29T07:33:51;23.40;61.80
69382;DHT22;56560;50.692;12.844;2023-07-29T07:36:16;23.70;60.00
69382;DHT22;56560;50.692;12.844;2023-07-29T07:38:42;24.00;59.10
69382;DHT22;56560;50.692;12.844;2023-07-29T07:41:07;24.10;59.10
69382;DHT22;56560;50.692;12.844;2023-07-29T07:43:33;24.10;58.90
69382;DHT22;56560;50.692;12.844;2023-07-29T07:46:01;24.20;58.40
69382;DHT22;56560;50.692;12.844;2023-07-29T07:48:29;24.70;57.10
69382;DHT22;56560;50.692;12.844;2023-07-29T07:50:55;25.30;56.90
69382;DHT22;56560;50.692;12.844;2023-07-29T07:53:20;25.60;56.10
69382;DHT22;56560;50.692;12.844;2023-07-29T07:55:46;25.80;54.60
69382;DHT22;56560;50.692;12.844;2023-07-29T07:58:12;26.00;54.30
69382;DHT22;56560;50.692;12.844;2023-07-29T08:00:37;25.90;54.20
69382;DHT22;56560;50.692;12.844;2023-07-29T08:03:03;25.70;54.80
69382;DHT22;56560;50.692;12.844;2023-07-29T08:05:29;25.60;54.80
69382;DHT22;56560;50.692;12.844;2023-07-29T08:07:54;25.70;54.60
69382;DHT22;56560;50.692;12.844;2023-07-29T08:10:20;26.20;53.60
69382;DHT22;56560;50.692;12.844;2023-07-29T08:12:46;26.40;53.10
69382;DHT22;56560;50.692;12.844;2023-07-29T08:15:11;26.20;52.90
69382;DHT22;56560;50.692;12.844;2023-07-29T08:17:37;25.70;53.50
69382;DHT22;56560;50.692;12.844;2023-07-29T08:20:03;25.00;54.20
69382;DHT22;56560;50.692;12.844;2023-07-29T08:22:28;24.40;55.70
69382;DHT22;56560;50.692;12.844;2023-07-29T08:24:54;24.30;56.20
69382;DHT22;56560;50.692;12.844;2023-07-29T08:27:19;24.60;55.60
69382;DHT22;56560;50.692;12.844;2023-07-29T08:29:45;24.60;54.60
69382;DHT22;56560;50.692;12.844;2023-07-29T08:32:11;24.90;54.00
69382;DHT22;56560;50.692;12.844;2023-07-29T08:34:36;25.20;53.00
69382;DHT22;56560;50.692;12.844;2023-07-29T08:37:02;25.80;51.70
69382;DHT22;56560;50.692;12.844;2023-07-29T08:39:27;26.10;51.20
69382;DHT22;56560;50.692;12.844;2023-07-29T08:41:57;26.40;50.50
69382;DHT22;56560;50.692;12.844;2023-07-29T08:44:27;26.80;50.50
69382;DHT22;56560;50.692;12.844;2023-07-29T08:46:56;26.60;50.70
69382;DHT22;56560;50.692;12.844;2023-07-29T08:49:23;26.90;50.30
69382;DHT22;56560;50.692;12.844;2023-07-29T08:51:50;27.30;48.90
69382;DHT22;56560;50.692;12.844;2023-07-29T08:54:18;27.60;47.80
69382;DHT22;56560;50.692;12.844;2023-07-29T08:56:45;27.60;48.00
69382;DHT22;56560;50.692;12.844;2023-07-29T08:59:11;27.80;47.20
69382;DHT22;56560;50.692;12.844;2023-07-29T09:01:41;27.60;48.00
69382;DHT22;56560;50.692;12.844;2023-07-29T09:04:07;27.10;48.00
69382;DHT22;56560;50.692;12.844;2023-07-29T09:06:33;26.00;50.40
69382;DHT22;56560;50.692;12.844;2023-07-29T09:09:01;25.80;51.20
69382;DHT22;56560;50.692;12.844;2023-07-29T09:11:27;25.90;51.00
69382;DHT22;56560;50.692;12.844;2023-07-29T09:13:52;26.50;51.10
69382;DHT22;56560;50.692;12.844;2023-07-29T09:16:20;26.90;49.50
69382;DHT22;56560;50.692;12.844;2023-07-29T09:18:50;27.30;49.50
69382;DHT22;56560;50.692;12.844;2023-07-29T09:21:23;27.40;48.90
69382;DHT22;56560;50.692;12.844;2023-07-29T09:23:50;27.20;49.00
69382;DHT22;56560;50.692;12.844;2023-07-29T09:26:26;26.60;50.60
69382;DHT22;56560;50.692;12.844;2023-07-29T09:28:56;26.40;51.50
69382;DHT22;56560;50.692;12.844;2023-07-29T09:31:24;25.90;52.50
69382;DHT22;56560;50.692;12.844;2023-07-29T09:33:50;25.50;53.20
69382;DHT22;56560;50.692;12.844;2023-07-29T09:36:21;25.70;53.50
69382;DHT22;56560;50.692;12.844;2023-07-29T09:38:46;25.40;53.90
69382;DHT22;56560;50.692;12.844;2023-07-29T09:41:13;25.50;53.60
69382;DHT22;56560;50.692;12.844;2023-07-29T09:43:40;25.60;54.10
69382;DHT22;56560;50.692;12.844;2023-07-29T09:46:06;25.50;54.10
69382;DHT22;56560;50.692;12.844;2023-07-29T09:48:35;25.20;54.60
69382;DHT22;56560;50.692;12.844;2023-07-29T09:51:14;25.00;55.40
69382;DHT22;56560;50.692;12.844;2023-07-29T09:53:45;24.90;55.90
69382;DHT22;56560;50.692;12.844;2023-07-29T09:56:12;24.80;56.70
69382;DHT22;56560;50.692;12.844;2023-07-29T09:58:38;24.40;56.70
69382;DHT22;56560;50.692;12.844;2023-07-29T10:01:08;24.10;56.90
69382;DHT22;56560;50.692;12.844;2023-07-29T10:03:35;24.20;57.20
69382;DHT22;56560;50.692;12.844;2023-07-29T10:06:03;24.30;57.30
69382;DHT22;56560;50.692;12.844;2023-07-29T10:08:33;24.70;56.10
69382;DHT22;56560;50.692;12.844;2023-07-29T10:11:11;24.80;56.30
69382;DHT22;56560;50.692;12.844;2023-07-29T10:13:37;24.70;57.10
69382;DHT22;56560;50.692;12.844;2023-07-29T10:16:04;24.60;57.20
69382;DHT22;56560;50.692;12.844;2023-07-29T10:18:31;24.40;57.40
69382;DHT22;56560;50.692;12.844;2023-07-29T10:20:59;24.40;58.00
69382;DHT22;56560;50.692;12.844;2023-07-29T10:23:26;24.60;57.80
69382;DHT22;56560;50.692;12.844;2023-07-29T10:26:03;24.60;57.30
69382;DHT22;56560;50.692;12.844;2023-07-29T10:28:30;24.60;57.90
69382;DHT22;56560;50.692;12.844;2023-07-29T10:30:57;24.80;57.20
69382;DHT22;56560;50.692;12.844;2023-07-29T10:33:22;25.00;56.60
69382;DHT22;56560;50.692;12.844;2023-07-29T10:35:48;24.80;56.30
69382;DHT22;56560;50.692;12.844;2023-07-29T10:38:15;24.70;56.20
69382;DHT22;56560;50.692;12.844;2023-07-29T10:40:59;24.70;56.20
69382;DHT22;56560;50.692;12.844;2023-07-29T10:43:34;24.80;56.10
69382;DHT22;56560;50.692;12.844;2023-07-29T10:46:16;24.60;56.10
69382;DHT22;56560;50.692;12.844;2023-07-29T10:51:29;24.90;56.50
69382;DHT22;56560;50.692;12.844;2023-07-29T10:54:10;25.10;55.90
69382;DHT22;56560;50.692;12.844;2023-07-29T10:56:40;24.90;56.20
69382;DHT22;56560;50.692;12.844;2023-07-29T11:01:42;24.50;57.90
69382;DHT22;56560;50.692;12.844;2023-07-29T11:15:23;25.00;57.70
69382;DHT22;56560;50.692;12.844;2023-07-29T11:18:00;25.00;57.40
69382;DHT22;56560;50.692;12.844;2023-07-29T11:20:30;25.10;57.50
69382;DHT22;56560;50.692;12.844;2023-07-29T11:22:59;25.20;57.10
69382;DHT22;56560;50.692;12.844;2023-07-29T11:25:27;25.20;57.50
69382;DHT22;56560;50.692;12.844;2023-07-29T11:27:54;24.80;58.00
69382;DHT22;56560;50.692;12.844;2023-07-29T11:30:20;24.50;58.80
69382;DHT22;56560;50.692;12.844;2023-07-29T11:32:46;24.10;59.10
69382;DHT22;56560;50.692;12.844;2023-07-29T11:35:17;24.00;60.00
69382;DHT22;56560;50.692;12.844;2023-07-29T11:37:45;23.90;60.00
69382;DHT22;56560;50.692;12.844;2023-07-29T11:40:22;23.50;60.70
69382;DHT22;56560;50.692;12.844;2023-07-29T11:42:50;23.40;61.60
69382;DHT22;56560;50.692;12.844;2023-07-29T11:45:16;23.70;60.80
69382;DHT22;56560;50.692;12.844;2023-07-29T11:47:42;24.00;60.00
69382;DHT22;56560;50.692;12.844;2023-07-29T11:50:09;24.20;58.90
69382;DHT22;56560;50.692;12.844;2023-07-29T11:52:36;23.90;60.50
69382;DHT22;56560;50.692;12.844;2023-07-29T11:55:04;23.80;60.90
69382;DHT22;56560;50.692;12.844;2023-07-29T11:57:31;23.60;60.90
69382;DHT22;56560;50.692;12.844;2023-07-29T11:59:57;23.40;62.50
69382;DHT22;56560;50.692;12.844;2023-07-29T12:02:24;23.20;63.70
69382;DHT22;56560;50.692;12.844;2023-07-29T12:04:51;22.70;65.50
69382;DHT22;56560;50.692;12.844;2023-07-29T12:07:18;22.20;68.50
69382;DHT22;56560;50.692;12.844;2023-07-29T12:09:45;21.70;69.80
69382;DHT22;56560;50.692;12.844;2023-07-29T12:12:11;21.20;73.70
69382;DHT22;56560;50.692;12.844;2023-07-29T12:14:37;20.80;76.30
69382;DHT22;56560;50.692;12.844;2023-07-29T12:17:05;20.40;80.30
69382;DHT22;56560;50.692;12.844;2023-07-29T12:19:38;20.00;79.80
69382;DHT22;56560;50.692;12.844;2023-07-29T12:22:06;19.90;81.80
69382;DHT22;56560;50.692;12.844;2023-07-29T12:24:33;20.00;82.30
69382;DHT22;56560;50.692;12.844;2023-07-29T12:27:00;20.20;81.00
69382;DHT22;56560;50.692;12.844;2023-07-29T12:29:26;20.40;81.20
69382;DHT22;56560;50.692;12.844;2023-07-29T12:31:59;20.80;78.80
69382;DHT22;56560;50.692;12.844;2023-07-29T12:34:27;21.50;77.30
69382;DHT22;56560;50.692;12.844;2023-07-29T12:36:58;22.30;73.50
69382;DHT22;56560;50.692;12.844;2023-07-29T12:39:29;23.00;72.20
69382;DHT22;56560;50.692;12.844;2023-07-29T12:41:56;23.80;68.20
69382;DHT22;56560;50.692;12.844;2023-07-29T12:44:30;24.00;67.30
69382;DHT22;56560;50.692;12.844;2023-07-29T12:46:55;23.50;66.80
69382;DHT22;56560;50.692;12.844;2023-07-29T12:49:21;23.30;67.20
69382;DHT22;56560;50.692;12.844;2023-07-29T12:51:48;23.90;67.00
69382;DHT22;56560;50.692;12.844;2023-07-29T12:54:13;24.80;62.80
69382;DHT22;56560;50.692;12.844;2023-07-29T12:56:39;25.80;61.20
69382;DHT22;56560;50.692;12.844;2023-07-29T12:59:05;27.40;58.60
69382;DHT22;56560;50.692;12.844;2023-07-29T13:01:30;28.00;53.60
69382;DHT22;56560;50.692;12.844;2023-07-29T13:03:56;28.50;52.90
69382;DHT22;56560;50.692;12.844;2023-07-29T13:06:22;28.90;51.50
69382;DHT22;56560;50.692;12.844;2023-07-29T13:08:48;29.10;51.60
69382;DHT22;56560;50.692;12.844;2023-07-29T13:11:15;29.30;51.10
69382;DHT22;56560;50.692;12.844;2023-07-29T13:13:41;29.60;50.30
69382;DHT22;56560;50.692;12.844;2023-07-29T13:16:06;29.90;49.50
69382;DHT22;56560;50.692;12.844;2023-07-29T13:18:33;30.20;50.10
69382;DHT22;56560;50.692;12.844;2023-07-29T13:20:58;30.70;48.60
69382;DHT22;56560;50.692;12.844;2023-07-29T13:23:25;31.80;47.30
69382;DHT22;56560;50.692;12.844;2023-07-29T13:25:51;32.80;45.50
69382;DHT22;56560;50.692;12.844;2023-07-29T13:28:17;33.30;43.50
69382;DHT22;56560;50.692;12.844;2023-07-29T13:30:42;32.90;42.70
69382;DHT22;56560;50.692;12.844;2023-07-29T13:33:08;31.00;46.30
69382;DHT22;56560;50.692;12.844;2023-07-29T13:35:34;29.60;49.40
69382;DHT22;56560;50.692;12.844;2023-07-29T13:38:00;28.30;51.90
69382;DHT22;56560;50.692;12.844;2023-07-29T13:40:26;27.20;54.40
69382;DHT22;56560;50.692;12.844;2023-07-29T13:42:53;27.00;54.80
69382;DHT22;56560;50.692;12.844;2023-07-29T13:45:19;28.50;52.50
69382;DHT22;56560;50.692;12.844;2023-07-29T13:47:44;29.90;48.70
69382;DHT22;56560;50.692;12.844;2023-07-29T13:50:10;31.20;46.50
69382;DHT22;56560;50.692;12.844;2023-07-29T13:52:37;32.20;44.20
69382;DHT22;56560;50.692;12.844;2023-07-29T13:55:04;33.00;42.80
69382;DHT22;56560;50.692;12.844;2023-07-29T13:57:29;32.90;42.70
69382;DHT22;56560;50.692;12.844;2023-07-29T13:59:55;32.30;42.60
69382;DHT22;56560;50.692;12.844;2023-07-29T14:02:21;31.10;43.50
69382;DHT22;56560;50.692;12.844;2023-07-29T14:04:46;30.30;44.80
69382;DHT22;56560;50.692;12.844;2023-07-29T14:07:12;29.50;47.10
69382;DHT22;56560;50.692;12.844;2023-07-29T14:09:37;29.60;44.90
69382;DHT22;56560;50.692;12.844;2023-07-29T14:12:04;30.00;44.80
69382;DHT22;56560;50.692;12.844;2023-07-29T14:14:30;30.90;43.60
69382;DHT22;56560;50.692;12.844;2023-07-29T14:16:56;32.60;42.60
69382;DHT22;56560;50.692;12.844;2023-07-29T14:19:22;33.50;40.30
69382;DHT22;56560;50.692;12.844;2023-07-29T14:21:48;33.80;38.30
69382;DHT22;56560;50.692;12.844;2023-07-29T14:24:14;34.30;38.70
69382;DHT22;56560;50.692;12.844;2023-07-29T14:26:41;34.70;37.40
69382;DHT22;56560;50.692;12.844;2023-07-29T14:29:06;34.00;38.20
69382;DHT22;56560;50.692;12.844;2023-07-29T14:31:32;32.70;38.90
69382;DHT22;56560;50.692;12.844;2023-07-29T14:33:57;31.70;40.80
69382;DHT22;56560;50.692;12.844;2023-07-29T14:36:23;32.80;39.90
69382;DHT22;56560;50.692;12.844;2023-07-29T14:38:49;34.60;37.50
69382;DHT22;56560;50.692;12.844;2023-07-29T14:41:15;35.70;35.40
69382;DHT22;56560;50.692;12.844;2023-07-29T14:43:40;35.40;36.00
69382;DHT22;56560;50.692;12.844;2023-07-29T14:46:06;35.00;36.00
69382;DHT22;56560;50.692;12.844;2023-07-29T14:48:32;34.20;36.90
69382;DHT22;56560;50.692;12.844;2023-07-29T14:50:57;33.70;37.40
69382;DHT22;56560;50.692;12.844;2023-07-29T14:53:23;33.50;38.00
69382;DHT22;56560;50.692;12.844;2023-07-29T14:55:49;33.70;36.90
69382;DHT22;56560;50.692;12.844;2023-07-29T14:58:15;33.60;36.80
69382;DHT22;56560;50.692;12.844;2023-07-29T15:00:40;32.80;38.10
69382;DHT22;56560;50.692;12.844;2023-07-29T15:03:06;31.80;39.20
69382;DHT22;56560;50.692;12.844;2023-07-29T15:05:32;31.70;40.40
69382;DHT22;56560;50.692;12.844;2023-07-29T15:07:58;33.40;39.00
69382;DHT22;56560;50.692;12.844;2023-07-29T15:10:24;34.50;36.60
69382;DHT22;56560;50.692;12.844;2023-07-29T15:12:49;35.30;35.50
69382;DHT22;56560;50.692;12.844;2023-07-29T15:15:15;35.20;35.70
69382;DHT22;56560;50.692;12.844;2023-07-29T15:17:41;35.70;35.80
69382;DHT22;56560;50.692;12.844;2023-07-29T15:20:06;36.20;34.40
69382;DHT22;56560;50.692;12.844;2023-07-29T15:22:33;36.50;33.90
69382;DHT22;56560;50.692;12.844;2023-07-29T15:24:58;37.40;32.10
69382;DHT22;56560;50.692;12.844;2023-07-29T15:27:28;37.70;32.40
69382;DHT22;56560;50.692;12.844;2023-07-29T15:29:53;37.30;32.20
69382;DHT22;56560;50.692;12.844;2023-07-29T15:32:19;37.30;32.00
69382;DHT22;56560;50.692;12.844;2023-07-29T15:34:45;35.50;34.00